Time;durP1;ratioP1;P1;durP2;ratioP2;P2;SDS_P1;SDS_P2;PMS_P1;PMS_P2;Temp;Humidity;BMP_temperature;BMP_pressure;BME280_temperature;BME280_humidity;BME280_pressure;Samples;Min_cycle;Max_cycle;Signal;HPM_P1;HPM_P2
2022/12/31 00:01:04;;;;;;;1.20;1.10;;;19.60;67.70;;;;;;5027445;28;20057;-74
2022/12/31 00:03:30;;;;;;;1.17;0.95;;;19.70;67.90;;;;;;5033659;28;20037;-74
2022/12/31 00:05:56;;;;;;;1.08;1.00;;;19.60;67.90;;;;;;5033447;28;20025;-74
2022/12/31 00:08:21;;;;;;;1.08;0.98;;;19.60;68.00;;;;;;5020824;28;20038;-74
2022/12/31 00:10:47;;;;;;;1.23;0.77;;;19.60;68.10;;;;;;5014985;28;20485;-74
2022/12/31 00:13:13;;;;;;;4.75;1.00;;;19.60;68.10;;;;;;5014566;28;20515;-74
2022/12/31 00:15:39;;;;;;;1.70;1.20;;;19.60;68.20;;;;;;5012823;28;20484;-74
2022/12/31 00:18:05;;;;;;;0.80;0.80;;;19.60;68.20;;;;;;5013302;28;20022;-74
2022/12/31 00:20:31;;;;;;;1.00;0.80;;;19.60;68.30;;;;;;5013617;28;20041;-74
2022/12/31 00:22:56;;;;;;;1.20;1.00;;;19.60;68.30;;;;;;5014582;28;20493;-74
2022/12/31 00:25:22;;;;;;;1.05;0.80;;;19.60;68.40;;;;;;5013388;28;20022;-74
2022/12/31 00:27:48;;;;;;;1.00;0.82;;;19.60;68.50;;;;;;5013355;28;20033;-74
2022/12/31 00:30:13;;;;;;;1.08;0.98;;;19.60;68.60;;;;;;5013070;28;20153;-74
2022/12/31 00:32:39;;;;;;;0.70;0.70;;;19.60;68.70;;;;;;5013217;28;20026;-73
2022/12/31 00:35:05;;;;;;;1.00;0.90;;;19.50;68.70;;;;;;5014259;28;20022;-74
2022/12/31 00:37:30;;;;;;;0.85;0.82;;;19.50;68.70;;;;;;5014412;28;20026;-74
2022/12/31 00:39:56;;;;;;;1.20;0.90;;;19.50;68.70;;;;;;5014268;28;20437;-74
2022/12/31 00:42:22;;;;;;;1.85;0.85;;;19.50;68.80;;;;;;5014040;28;20548;-74
2022/12/31 00:44:47;;;;;;;0.75;0.73;;;19.50;68.90;;;;;;5012999;28;20037;-75
2022/12/31 00:47:13;;;;;;;1.27;0.60;;;19.50;69.00;;;;;;5012937;28;20034;-75
2022/12/31 00:49:39;;;;;;;0.85;0.60;;;19.50;69.00;;;;;;5014144;28;20068;-74
2022/12/31 00:52:04;;;;;;;0.95;0.70;;;19.50;69.00;;;;;;5013950;28;20022;-74
2022/12/31 00:54:30;;;;;;;0.80;0.80;;;19.50;69.10;;;;;;5012857;28;20029;-74
2022/12/31 00:56:55;;;;;;;0.80;0.80;;;19.50;69.20;;;;;;5013701;28;20029;-74
2022/12/31 00:59:21;;;;;;;0.70;0.70;;;19.50;69.20;;;;;;5012870;28;20029;-74
2022/12/31 01:01:48;;;;;;;0.70;0.70;;;19.50;69.30;;;;;;5032513;28;20049;-74
2022/12/31 01:04:16;;;;;;;0.90;0.75;;;19.50;69.40;;;;;;5033399;28;20025;-74
2022/12/31 01:06:42;;;;;;;1.35;0.80;;;19.50;69.30;;;;;;5032442;28;20025;-74
2022/12/31 01:09:09;;;;;;;0.73;0.60;;;19.50;69.40;;;;;;5013161;28;20079;-73
2022/12/31 01:11:34;;;;;;;1.23;0.60;;;19.50;69.50;;;;;;5013486;28;20029;-73
2022/12/31 01:14:01;;;;;;;0.85;0.70;;;19.50;69.60;;;;;;5012642;28;20022;-73
2022/12/31 01:16:29;;;;;;;1.10;0.70;;;19.50;69.70;;;;;;5013562;28;20030;-73
2022/12/31 01:18:59;;;;;;;1.85;0.70;;;19.50;69.70;;;;;;5012502;28;20022;-73
2022/12/31 01:21:25;;;;;;;0.70;0.60;;;19.40;69.70;;;;;;5012207;28;20033;-73
2022/12/31 01:23:50;;;;;;;1.48;0.80;;;19.40;69.80;;;;;;5012336;28;20403;-73
2022/12/31 01:26:16;;;;;;;0.88;0.65;;;19.40;69.80;;;;;;5013075;28;20048;-73
2022/12/31 01:28:42;;;;;;;0.60;0.50;;;19.40;69.80;;;;;;5012262;28;20022;-74
2022/12/31 01:31:11;;;;;;;1.08;0.70;;;19.40;69.80;;;;;;5012184;28;20033;-74
2022/12/31 01:33:37;;;;;;;1.33;0.70;;;19.40;69.80;;;;;;5011941;28;20362;-75
2022/12/31 01:36:10;;;;;;;1.02;0.70;;;19.40;69.90;;;;;;5011966;28;20032;-74
2022/12/31 01:38:36;;;;;;;1.02;0.70;;;19.40;70.00;;;;;;5013168;28;20072;-74
2022/12/31 01:41:02;;;;;;;0.82;0.68;;;19.40;70.10;;;;;;5013148;28;20030;-74
2022/12/31 01:43:48;;;;;;;1.05;0.70;;;19.40;71.10;;;;;;5011968;28;20037;-74
2022/12/31 01:46:19;;;;;;;0.93;0.60;;;19.40;70.10;;;;;;5012776;28;20104;-74
2022/12/31 01:48:47;;;;;;;1.52;0.63;;;19.40;70.20;;;;;;5013156;28;20022;-74
2022/12/31 01:51:13;;;;;;;0.68;0.60;;;19.40;70.20;;;;;;5011948;28;20446;-73
2022/12/31 01:53:39;;;;;;;1.25;0.55;;;19.40;70.30;;;;;;5011657;28;20033;-74
2022/12/31 01:56:04;;;;;;;2.55;0.60;;;19.40;70.40;;;;;;5011496;28;20072;-74
2022/12/31 01:58:42;;;;;;;0.95;0.50;;;19.40;70.30;;;;;;5011923;28;20026;-74
2022/12/31 02:01:08;;;;;;;1.42;0.50;;;19.40;70.30;;;;;;5024915;28;20566;-74
2022/12/31 02:03:33;;;;;;;0.57;0.40;;;19.40;70.30;;;;;;5031523;28;20026;-74
2022/12/31 02:06:20;;;;;;;0.50;0.50;;;19.40;70.30;;;;;;5031389;28;20021;-74
2022/12/31 02:08:46;;;;;;;0.63;0.40;;;19.50;70.40;;;;;;5015172;28;20018;-74
2022/12/31 02:11:29;;;;;;;1.55;0.75;;;19.40;70.30;;;;;;5011517;28;20056;-74
2022/12/31 02:13:58;;;;;;;1.65;0.85;;;19.50;70.30;;;;;;5011500;28;20457;-74
2022/12/31 02:16:29;;;;;;;0.63;0.45;;;19.50;70.40;;;;;;5011476;28;20444;-74
2022/12/31 02:19:17;;;;;;;0.60;0.40;;;19.40;70.40;;;;;;5011413;28;20026;-74
2022/12/31 02:22:15;;;;;;;0.60;0.43;;;19.50;70.40;;;;;;5011310;28;20030;-74
2022/12/31 02:24:58;;;;;;;0.65;0.52;;;19.50;70.50;;;;;;5010500;28;20141;-74
2022/12/31 02:27:24;;;;;;;0.80;0.75;;;19.50;70.40;;;;;;5025851;28;20037;-74
2022/12/31 02:30:04;;;;;;;0.73;0.43;;;19.50;70.40;;;;;;5010380;28;20456;-74
2022/12/31 02:32:51;;;;;;;1.85;0.55;;;19.40;70.40;;;;;;5010347;28;20097;-74
2022/12/31 02:35:32;;;;;;;0.63;0.55;;;19.40;70.40;;;;;;5024186;28;20057;-74
2022/12/31 02:38:03;;;;;;;4.22;0.45;;;19.50;70.40;;;;;;4992122;28;20405;-74
2022/12/31 02:40:30;;;;;;;0.68;0.47;;;19.50;70.50;;;;;;5013929;28;20022;-74
2022/12/31 02:42:55;;;;;;;0.43;0.40;;;19.50;70.50;;;;;;5014043;28;20037;-73
2022/12/31 02:45:25;;;;;;;0.30;0.25;;;19.50;70.50;;;;;;5014226;28;20030;-73
2022/12/31 02:48:12;;;;;;;1.70;0.47;;;19.50;70.50;;;;;;5030310;28;20037;-73
2022/12/31 02:50:56;;;;;;;0.85;0.43;;;19.50;70.60;;;;;;5014005;28;20117;-73
2022/12/31 02:53:43;;;;;;;0.47;0.40;;;19.50;70.60;;;;;;5029315;28;20030;-73
2022/12/31 02:56:13;;;;;;;0.63;0.47;;;19.50;70.70;;;;;;5013973;28;20034;-73
2022/12/31 03:04:31;;;;;;;2.97;0.38;;;19.50;70.70;;;;;;5015308;28;20036;-73
2022/12/31 03:07:23;;;;;;;0.40;0.40;;;19.50;70.70;;;;;;5015439;28;20022;-73
2022/12/31 03:09:49;;;;;;;0.80;0.40;;;19.50;70.90;;;;;;5032694;28;20041;-73
2022/12/31 03:14:58;;;;;;;0.30;0.30;;;19.40;70.90;;;;;;5035995;28;20096;-73
2022/12/31 03:17:24;;;;;;;0.35;0.35;;;19.40;71.00;;;;;;5034248;28;20033;-73
2022/12/31 03:22:36;;;;;;;0.35;0.35;;;19.40;71.00;;;;;;5034455;28;20036;-73
2022/12/31 03:27:50;;;;;;;0.40;0.40;;;19.50;71.10;;;;;;5035609;28;20100;-73
2022/12/31 03:30:16;;;;;;;1.10;0.38;;;19.50;71.20;;;;;;5017350;28;20033;-73
2022/12/31 03:32:42;;;;;;;0.50;0.50;;;19.40;71.10;;;;;;5034397;28;20036;-74
2022/12/31 03:35:08;;;;;;;1.77;0.85;;;19.40;71.10;;;;;;5035344;28;20014;-73
2022/12/31 03:37:34;;;;;;;0.47;0.47;;;19.40;71.20;;;;;;5034009;28;20032;-73
2022/12/31 03:40:00;;;;;;;2.65;0.38;;;19.50;71.40;;;;;;5035204;28;20029;-73
2022/12/31 03:42:25;;;;;;;1.48;0.35;;;19.50;71.50;;;;;;5035147;28;20056;-73
2022/12/31 03:44:51;;;;;;;0.65;0.38;;;19.50;71.60;;;;;;5035303;28;20029;-73
2022/12/31 03:47:16;;;;;;;0.40;0.40;;;19.40;71.70;;;;;;5035111;28;20029;-73
2022/12/31 03:49:42;;;;;;;0.55;0.40;;;19.50;71.80;;;;;;5034143;28;20021;-73
2022/12/31 03:52:08;;;;;;;0.40;0.40;;;19.50;71.80;;;;;;5034350;28;20108;-73
2022/12/31 03:54:33;;;;;;;0.43;0.40;;;19.50;71.80;;;;;;5033795;28;20022;-73
2022/12/31 03:56:59;;;;;;;0.50;0.20;;;19.50;71.80;;;;;;5033728;28;20029;-73
2022/12/31 03:59:25;;;;;;;0.47;0.40;;;19.50;71.80;;;;;;5034892;28;20083;-73
2022/12/31 04:01:50;;;;;;;1.42;0.30;;;19.50;71.80;;;;;;5033299;28;20045;-73
2022/12/31 04:04:16;;;;;;;1.58;0.40;;;19.50;71.90;;;;;;5034435;28;20040;-74
2022/12/31 04:06:41;;;;;;;0.43;0.20;;;19.50;71.90;;;;;;5034616;28;20029;-73
2022/12/31 04:09:07;;;;;;;0.45;0.35;;;19.50;71.90;;;;;;5014823;28;20118;-73
2022/12/31 04:11:33;;;;;;;1.10;0.30;;;19.50;71.90;;;;;;5014614;28;20409;-73
2022/12/31 04:13:58;;;;;;;0.50;0.30;;;19.50;71.90;;;;;;5013788;28;20481;-73
2022/12/31 04:16:24;;;;;;;0.30;0.30;;;19.50;72.00;;;;;;5014528;28;20033;-74
2022/12/31 04:18:50;;;;;;;0.55;0.30;;;19.50;72.00;;;;;;5014749;28;20026;-74
2022/12/31 04:21:15;;;;;;;0.65;0.40;;;19.50;72.00;;;;;;5014575;28;20034;-74
2022/12/31 04:23:41;;;;;;;0.70;0.30;;;19.50;72.00;;;;;;5013242;28;20033;-74
2022/12/31 04:26:06;;;;;;;1.08;0.63;;;19.50;72.10;;;;;;5014426;28;20034;-74
2022/12/31 04:28:32;;;;;;;0.50;0.30;;;19.50;72.00;;;;;;5014392;28;20064;-74
2022/12/31 04:30:58;;;;;;;0.30;0.30;;;19.50;72.00;;;;;;5014533;28;20513;-74
2022/12/31 04:33:23;;;;;;;3.22;0.30;;;19.50;72.00;;;;;;5014268;28;20097;-74
2022/12/31 04:35:49;;;;;;;0.57;0.40;;;19.50;72.00;;;;;;5013170;28;20081;-74
2022/12/31 04:38:15;;;;;;;0.75;0.40;;;19.50;72.00;;;;;;5014572;28;20022;-74
2022/12/31 04:41:15;;;;;;;0.50;0.50;;;19.50;72.00;;;;;;5013231;28;20034;-74
2022/12/31 04:43:26;;;;;;;0.38;0.38;;;19.50;72.20;;;;;;5013950;28;20066;-74
2022/12/31 04:45:51;;;;;;;0.68;0.40;;;19.50;72.10;;;;;;5014335;28;20105;-74
2022/12/31 04:48:17;;;;;;;0.28;0.20;;;19.50;72.20;;;;;;5012519;28;20429;-74
2022/12/31 04:50:44;;;;;;;0.45;0.30;;;19.50;72.20;;;;;;5014027;28;20106;-74
2022/12/31 04:53:10;;;;;;;0.30;0.30;;;19.50;72.20;;;;;;5013106;28;20018;-74
2022/12/31 04:55:35;;;;;;;0.32;0.30;;;19.50;72.30;;;;;;5013845;28;20084;-74
2022/12/31 04:58:01;;;;;;;1.98;0.30;;;19.50;72.30;;;;;;5013959;28;20041;-74
2022/12/31 05:00:27;;;;;;;0.22;0.22;;;19.50;72.30;;;;;;5021517;28;20037;-74
2022/12/31 05:02:52;;;;;;;0.77;0.35;;;19.50;72.30;;;;;;5033024;28;20053;-73
2022/12/31 05:05:18;;;;;;;0.20;0.20;;;19.50;72.30;;;;;;5033671;28;20429;-73
2022/12/31 05:07:43;;;;;;;0.75;0.32;;;19.50;72.20;;;;;;5026172;28;20518;-73
2022/12/31 05:10:09;;;;;;;0.28;0.25;;;19.50;72.20;;;;;;5013715;28;20063;-74
2022/12/31 05:12:35;;;;;;;1.08;0.30;;;19.50;72.20;;;;;;5013477;28;20047;-74
2022/12/31 05:15:00;;;;;;;0.20;0.20;;;19.50;72.20;;;;;;5012524;28;20055;-74
2022/12/31 05:17:26;;;;;;;0.95;0.30;;;19.50;72.30;;;;;;5013388;28;20025;-74
2022/12/31 05:19:51;;;;;;;0.88;0.40;;;19.50;72.20;;;;;;5013726;28;20033;-74
2022/12/31 05:22:29;;;;;;;0.20;0.20;;;19.50;72.20;;;;;;5013473;28;20029;-74
2022/12/31 05:24:58;;;;;;;0.75;0.45;;;19.50;72.20;;;;;;5013572;28;20033;-74
2022/12/31 05:27:24;;;;;;;0.32;0.30;;;19.50;72.20;;;;;;5012241;28;20109;-74
2022/12/31 05:29:50;;;;;;;0.75;0.40;;;19.50;72.20;;;;;;5012351;28;20441;-74
2022/12/31 05:32:15;;;;;;;0.68;0.25;;;19.50;72.20;;;;;;5011952;28;20045;-74
2022/12/31 05:34:41;;;;;;;0.50;0.30;;;19.50;72.20;;;;;;5012215;28;20058;-74
2022/12/31 05:37:07;;;;;;;0.75;0.38;;;19.50;72.20;;;;;;5013302;28;20017;-74
2022/12/31 05:39:32;;;;;;;1.23;0.35;;;19.50;72.20;;;;;;5013103;28;20049;-74
2022/12/31 05:41:58;;;;;;;0.60;0.30;;;19.50;72.20;;;;;;5012268;28;20033;-74
2022/12/31 05:44:24;;;;;;;0.30;0.30;;;19.50;72.20;;;;;;5012966;28;20030;-74
2022/12/31 05:46:49;;;;;;;0.30;0.30;;;19.50;72.20;;;;;;5012899;28;20030;-74
2022/12/31 05:49:15;;;;;;;0.30;0.30;;;19.50;72.30;;;;;;5013265;28;20033;-74
2022/12/31 05:51:40;;;;;;;0.30;0.30;;;19.50;72.40;;;;;;5012936;28;20522;-74
2022/12/31 05:54:06;;;;;;;0.90;0.30;;;19.50;72.40;;;;;;5013135;28;20440;-74
2022/12/31 05:56:32;;;;;;;0.40;0.28;;;19.50;72.70;;;;;;5012953;28;20481;-74
2022/12/31 05:58:57;;;;;;;0.82;0.20;;;19.40;72.30;;;;;;5012925;28;20084;-74
2022/12/31 06:01:23;;;;;;;0.98;0.38;;;19.50;72.50;;;;;;5026488;28;20388;-74
2022/12/31 06:03:48;;;;;;;0.68;0.40;;;19.50;72.50;;;;;;5032611;28;20029;-74
2022/12/31 06:06:14;;;;;;;0.65;0.35;;;19.50;72.50;;;;;;5031311;28;20039;-74
2022/12/31 06:08:40;;;;;;;0.20;0.20;;;19.50;72.60;;;;;;5027706;28;20108;-74
2022/12/31 06:11:05;;;;;;;0.30;0.30;;;19.50;72.70;;;;;;5030618;28;20036;-76
2022/12/31 06:13:31;;;;;;;0.20;0.20;;;19.50;72.60;;;;;;5031055;28;20109;-75
2022/12/31 06:15:56;;;;;;;1.17;0.35;;;19.50;72.70;;;;;;5032975;28;20018;-75
2022/12/31 06:18:22;;;;;;;0.65;0.40;;;19.50;72.70;;;;;;5031312;28;20110;-75
2022/12/31 06:20:48;;;;;;;2.83;0.30;;;19.50;72.60;;;;;;5030986;28;20438;-75
2022/12/31 06:23:13;;;;;;;1.95;0.20;;;19.50;72.50;;;;;;5032351;28;20022;-74
2022/12/31 06:25:39;;;;;;;1.13;0.20;;;19.50;72.50;;;;;;5032195;28;20037;-74
2022/12/31 06:28:05;;;;;;;0.40;0.30;;;19.50;72.60;;;;;;5032208;28;20399;-74
2022/12/31 06:30:30;;;;;;;0.88;0.30;;;19.50;72.50;;;;;;5032306;28;20029;-74
2022/12/31 06:32:56;;;;;;;2.13;0.28;;;19.50;72.50;;;;;;5031083;28;20037;-74
2022/12/31 06:35:22;;;;;;;0.20;0.20;;;19.50;72.60;;;;;;5032296;28;20372;-75
2022/12/31 06:37:47;;;;;;;0.75;0.30;;;19.50;72.60;;;;;;5032127;28;20559;-75
2022/12/31 06:40:13;;;;;;;1.10;0.32;;;19.50;72.60;;;;;;5032408;28;20026;-74
2022/12/31 06:42:41;;;;;;;0.77;0.32;;;19.40;72.50;;;;;;5030675;28;20454;-75
2022/12/31 06:45:07;;;;;;;0.35;0.20;;;19.50;72.70;;;;;;5030999;28;20025;-74
2022/12/31 06:47:32;;;;;;;0.20;0.20;;;19.50;72.60;;;;;;5030979;28;20030;-74
2022/12/31 06:49:58;;;;;;;0.40;0.32;;;19.50;72.70;;;;;;5032141;28;20080;-74
2022/12/31 06:52:23;;;;;;;0.30;0.20;;;19.50;72.70;;;;;;5030988;28;20032;-74
2022/12/31 06:54:49;;;;;;;1.45;0.20;;;19.50;72.70;;;;;;5032073;28;20049;-75
2022/12/31 06:57:15;;;;;;;2.45;0.25;;;19.50;72.70;;;;;;5031800;28;20476;-74
2022/12/31 06:59:42;;;;;;;0.40;0.30;;;19.50;72.70;;;;;;5030638;28;20037;-74
2022/12/31 07:02:25;;;;;;;0.30;0.10;;;19.50;72.80;;;;;;5030583;28;20049;-74
2022/12/31 07:05:10;;;;;;;2.25;0.40;;;19.50;72.80;;;;;;5048996;28;20392;-74
2022/12/31 07:07:48;;;;;;;0.60;0.30;;;19.40;72.70;;;;;;5024595;28;20029;-74
2022/12/31 07:10:17;;;;;;;0.88;0.30;;;19.50;73.00;;;;;;5012082;28;20484;-74
2022/12/31 07:13:04;;;;;;;0.63;0.40;;;19.50;72.80;;;;;;5011806;28;20022;-74
2022/12/31 07:15:32;;;;;;;0.22;0.20;;;19.50;72.70;;;;;;5010877;28;20507;-74
2022/12/31 07:18:24;;;;;;;0.38;0.30;;;19.50;72.70;;;;;;5012199;28;20022;-74
2022/12/31 07:20:50;;;;;;;0.63;0.30;;;19.50;72.70;;;;;;5010801;28;20063;-74
2022/12/31 07:23:16;;;;;;;0.73;0.30;;;19.50;72.60;;;;;;5012181;28;20044;-74
2022/12/31 07:25:46;;;;;;;0.40;0.28;;;19.50;72.60;;;;;;5014400;28;20540;-74
2022/12/31 07:28:25;;;;;;;0.40;0.20;;;19.50;72.70;;;;;;5014362;28;20077;-74
2022/12/31 07:31:00;;;;;;;0.73;0.20;;;19.50;72.60;;;;;;5014352;28;20022;-74
2022/12/31 07:33:32;;;;;;;0.32;0.30;;;19.50;72.60;;;;;;5014340;28;20026;-74
2022/12/31 07:36:12;;;;;;;0.20;0.17;;;19.50;72.70;;;;;;5015671;28;20054;-74
2022/12/31 07:38:49;;;;;;;0.45;0.30;;;19.50;72.60;;;;;;5015587;28;20033;-74
2022/12/31 07:41:53;;;;;;;0.93;0.40;;;19.50;72.60;;;;;;5014255;28;20093;-74
2022/12/31 07:44:34;;;;;;;0.20;0.20;;;19.50;72.50;;;;;;5014348;28;20025;-74
2022/12/31 07:47:00;;;;;;;1.35;0.20;;;19.50;72.50;;;;;;5015333;28;20030;-74
2022/12/31 07:49:27;;;;;;;0.43;0.30;;;19.50;72.50;;;;;;5013962;28;20530;-74
2022/12/31 07:51:53;;;;;;;1.05;0.30;;;19.50;72.50;;;;;;5014156;28;20389;-74
2022/12/31 07:54:19;;;;;;;0.47;0.30;;;19.50;72.50;;;;;;5015134;28;20030;-74
2022/12/31 07:56:45;;;;;;;1.13;0.30;;;19.50;72.50;;;;;;5013497;28;20022;-74
2022/12/31 07:59:20;;;;;;;1.10;0.60;;;19.50;72.50;;;;;;5015307;28;20116;-74
2022/12/31 08:02:20;;;;;;;0.30;0.28;;;19.50;72.50;;;;;;5033323;28;20052;-74
2022/12/31 08:05:00;;;;;;;1.08;0.20;;;19.50;72.50;;;;;;5034639;28;20034;-75
2022/12/31 08:07:44;;;;;;;0.38;0.38;;;19.50;72.50;;;;;;5029800;28;20096;-76
2022/12/31 08:10:40;;;;;;;1.27;0.35;;;19.50;72.50;;;;;;5013330;28;20432;-73
2022/12/31 08:13:09;;;;;;;1.65;0.30;;;19.50;72.50;;;;;;5013719;28;20022;-73
2022/12/31 08:15:36;;;;;;;0.35;0.20;;;19.50;72.50;;;;;;5014852;28;20014;-76
2022/12/31 08:18:02;;;;;;;1.50;0.50;;;19.50;72.00;;;;;;5012437;28;20069;-77
2022/12/31 08:20:28;;;;;;;1.88;0.40;;;19.40;72.10;;;;;;5014824;28;20038;-78
2022/12/31 08:23:25;;;;;;;0.52;0.30;;;19.40;72.20;;;;;;5013319;28;20030;-80
2022/12/31 08:26:12;;;;;;;0.75;0.40;;;19.40;72.10;;;;;;5012901;28;20034;-78
2022/12/31 08:28:59;;;;;;;1.05;0.32;;;19.40;72.20;;;;;;5013253;28;20021;-76
2022/12/31 08:31:40;;;;;;;2.28;0.40;;;19.30;72.00;;;;;;5014585;28;20511;-78
2022/12/31 08:34:45;;;;;;;0.82;0.45;;;19.30;72.00;;;;;;5014352;28;20030;-78
2022/12/31 08:37:40;;;;;;;1.77;0.32;;;19.30;71.90;;;;;;5015117;28;20040;-78
2022/12/31 08:40:22;;;;;;;1.20;0.50;;;19.20;71.80;;;;;;5064890;28;20014;-78
2022/12/31 08:43:08;;;;;;;0.90;0.60;;;19.20;71.80;;;;;;5051083;28;20028;-78
2022/12/31 08:45:36;;;;;;;0.70;0.20;;;19.20;71.80;;;;;;5063210;28;20032;-78
2022/12/31 08:48:05;;;;;;;1.98;0.80;;;19.20;71.80;;;;;;5064761;28;20034;-78
2022/12/31 08:50:31;;;;;;;1.15;0.40;;;19.10;71.70;;;;;;5049063;28;20488;-78
2022/12/31 08:52:57;;;;;;;2.28;0.60;;;19.10;71.60;;;;;;5033743;28;20510;-75
2022/12/31 08:55:23;;;;;;;2.50;0.60;;;19.10;71.60;;;;;;5033601;28;20020;-75
2022/12/31 08:58:00;;;;;;;2.22;0.60;;;19.10;71.70;;;;;;5065510;28;20030;-75
2022/12/31 09:00:26;;;;;;;1.63;0.65;;;19.00;71.70;;;;;;5032168;28;20491;-75
2022/12/31 09:03:07;;;;;;;4.50;0.60;;;19.00;71.70;;;;;;5032111;28;20049;-75
2022/12/31 09:05:47;;;;;;;4.97;0.60;;;19.00;71.80;;;;;;5033177;28;20029;-75
2022/12/31 09:08:19;;;;;;;2.63;0.73;;;19.00;71.80;;;;;;5021201;28;20108;-75
2022/12/31 09:11:12;;;;;;;2.40;1.00;;;19.00;71.80;;;;;;5012718;28;20569;-75
2022/12/31 09:13:59;;;;;;;2.58;0.82;;;18.90;71.70;;;;;;5011972;28;20420;-75
2022/12/31 09:16:39;;;;;;;4.88;0.90;;;18.90;71.80;;;;;;5011816;28;20036;-75
2022/12/31 09:19:05;;;;;;;4.18;0.93;;;18.90;71.80;;;;;;5011343;28;20025;-75
2022/12/31 09:21:31;;;;;;;2.22;1.00;;;18.90;71.80;;;;;;5011657;28;20541;-75
2022/12/31 09:23:57;;;;;;;2.85;1.00;;;18.80;71.70;;;;;;5012013;28;20472;-75
2022/12/31 09:26:48;;;;;;;2.42;1.08;;;18.80;71.80;;;;;;5012262;28;20084;-75
2022/12/31 09:29:37;;;;;;;4.05;0.95;;;18.80;71.80;;;;;;5013373;28;20060;-75
2022/12/31 09:32:18;;;;;;;1.55;0.98;;;18.70;71.80;;;;;;5012248;28;20032;-75
2022/12/31 09:34:55;;;;;;;2.78;0.82;;;18.70;71.80;;;;;;5013211;28;20507;-75
2022/12/31 09:37:34;;;;;;;6.28;1.27;;;18.70;71.70;;;;;;5011917;28;20025;-75
2022/12/31 09:40:00;;;;;;;2.47;1.30;;;18.70;71.80;;;;;;5012020;28;20113;-75
2022/12/31 09:42:43;;;;;;;2.03;1.00;;;18.70;71.90;;;;;;5012018;28;20407;-75
2022/12/31 09:45:27;;;;;;;3.45;1.00;;;18.60;71.80;;;;;;5013247;28;20030;-75
2022/12/31 09:48:14;;;;;;;4.18;1.25;;;18.60;71.80;;;;;;5011841;28;20477;-75
2022/12/31 09:50:49;;;;;;;2.78;1.00;;;18.60;71.90;;;;;;5013144;28;20030;-75
2022/12/31 09:53:37;;;;;;;3.45;1.33;;;18.60;71.90;;;;;;5011659;28;20476;-74
2022/12/31 09:56:15;;;;;;;4.07;1.50;;;18.60;71.90;;;;;;5011759;28;20021;-75
2022/12/31 09:58:42;;;;;;;4.07;1.52;;;18.60;72.00;;;;;;5011782;28;20435;-75
2022/12/31 10:01:29;;;;;;;2.10;1.20;;;18.60;72.00;;;;;;5008319;28;20495;-75
2022/12/31 10:04:17;;;;;;;3.10;1.30;;;18.50;72.00;;;;;;5031224;28;20075;-75
2022/12/31 10:07:00;;;;;;;3.70;1.15;;;18.50;72.10;;;;;;5032178;28;20029;-75
2022/12/31 10:09:29;;;;;;;;;;;18.50;72.00;;;;;;5012099;28;20030;-75
2022/12/31 10:12:05;;;;;;;2.42;0.90;;;18.50;72.00;;;;;;5012869;28;19912;-75
2022/12/31 10:15:01;;;;;;;2.58;1.30;;;18.50;72.10;;;;;;5012827;28;20029;-75
2022/12/31 10:17:36;;;;;;;6.20;1.70;;;18.40;72.00;;;;;;5012535;28;20022;-75
2022/12/31 10:20:22;;;;;;;3.58;1.38;;;18.40;72.10;;;;;;5012593;28;20112;-75
2022/12/31 10:23:04;;;;;;;6.13;1.08;;;18.40;72.10;;;;;;5011467;28;20022;-75
2022/12/31 10:25:32;;;;;;;2.50;1.30;;;18.40;72.10;;;;;;5011541;28;20392;-75
2022/12/31 10:28:17;;;;;;;3.05;1.17;;;18.30;72.10;;;;;;5011206;28;20052;-75
2022/12/31 10:30:50;;;;;;;5.20;1.50;;;18.40;72.20;;;;;;5011214;28;20022;-75
2022/12/31 10:33:20;;;;;;;2.92;1.48;;;18.30;72.20;;;;;;5012719;28;20440;-75
2022/12/31 10:36:04;;;;;;;3.55;1.63;;;18.30;72.10;;;;;;5011358;28;20114;-75
2022/12/31 10:38:35;;;;;;;3.88;1.17;;;18.30;72.20;;;;;;5011262;28;20029;-75
2022/12/31 10:41:29;;;;;;;5.95;1.23;;;18.30;72.10;;;;;;5010896;28;20036;-75
2022/12/31 10:44:15;;;;;;;3.53;1.20;;;18.20;72.10;;;;;;5012302;28;20036;-75
2022/12/31 10:46:41;;;;;;;3.92;1.30;;;18.20;72.20;;;;;;5012562;28;20036;-74
2022/12/31 10:49:18;;;;;;;4.50;1.42;;;18.20;72.20;;;;;;5011930;28;20121;-75
2022/12/31 10:52:02;;;;;;;5.10;1.17;;;18.20;72.30;;;;;;5012294;28;20104;-75
2022/12/31 10:54:58;;;;;;;3.95;1.20;;;18.20;72.30;;;;;;5015899;28;20079;-75
2022/12/31 10:57:56;;;;;;;3.05;1.35;;;18.20;72.30;;;;;;5023247;28;20443;-75
2022/12/31 11:00:22;;;;;;;2.85;1.17;;;18.10;72.30;;;;;;5032628;28;20021;-75
2022/12/31 11:03:03;;;;;;;3.53;1.15;;;18.10;72.40;;;;;;5034442;28;20049;-75
2022/12/31 11:05:56;;;;;;;6.75;1.58;;;18.10;72.40;;;;;;5019121;28;20022;-74
2022/12/31 11:08:40;;;;;;;3.65;1.40;;;18.10;72.40;;;;;;5035909;28;20498;-75
2022/12/31 11:11:21;;;;;;;2.53;1.10;;;18.10;72.40;;;;;;5035814;28;20200;-75
2022/12/31 11:13:55;;;;;;;3.33;1.40;;;18.00;72.30;;;;;;5035652;28;20068;-75
2022/12/31 11:16:37;;;;;;;2.50;1.30;;;18.00;72.40;;;;;;5034361;28;20061;-72
2022/12/31 11:19:21;;;;;;;4.10;1.30;;;18.00;72.40;;;;;;5042037;28;20020;-72
2022/12/31 11:22:05;;;;;;;4.82;1.30;;;18.20;72.00;;;;;;5042858;28;20028;-72
2022/12/31 11:25:05;;;;;;;2.80;1.40;;;18.30;71.60;;;;;;5056220;28;20115;-72
2022/12/31 11:27:37;;;;;;;3.20;1.50;;;18.30;71.40;;;;;;5035554;28;20061;-72
2022/12/31 11:30:10;;;;;;;5.27;1.20;;;18.40;71.40;;;;;;5035653;28;20048;-72
2022/12/31 11:32:49;;;;;;;2.58;1.23;;;18.40;72.30;;;;;;5034697;28;20484;-72
2022/12/31 11:35:48;;;;;;;2.90;1.27;;;18.40;71.10;;;;;;5046909;28;20048;-72
2022/12/31 11:38:24;;;;;;;2.90;1.13;;;18.50;71.00;;;;;;5054550;28;20013;-72
2022/12/31 11:41:04;;;;;;;3.13;1.10;;;18.50;70.90;;;;;;5055858;28;20053;-72
2022/12/31 11:43:37;;;;;;;3.22;1.17;;;18.60;70.80;;;;;;5054513;28;20074;-72
2022/12/31 11:46:29;;;;;;;3.35;1.20;;;18.60;70.70;;;;;;5054568;28;20035;-72
2022/12/31 11:49:19;;;;;;;3.90;1.38;;;18.60;70.60;;;;;;5055105;28;20029;-72
2022/12/31 11:51:51;;;;;;;3.08;1.30;;;18.70;70.60;;;;;;5030904;28;20108;-72
2022/12/31 11:54:28;;;;;;;2.72;1.38;;;18.70;70.40;;;;;;5035478;28;20013;-70
2022/12/31 11:57:20;;;;;;;4.57;1.50;;;18.80;70.40;;;;;;5034180;28;20059;-71
2022/12/31 11:59:46;;;;;;;2.75;1.20;;;18.80;70.30;;;;;;5034909;28;20041;-71
2022/12/31 12:02:29;;;;;;;2.30;1.08;;;18.80;70.20;;;;;;5033474;28;20573;-70
2022/12/31 12:04:57;;;;;;;3.53;1.20;;;18.90;70.20;;;;;;5014312;28;20053;-71
2022/12/31 12:07:23;;;;;;;6.40;1.38;;;18.90;70.10;;;;;;5014345;28;20030;-71
2022/12/31 12:09:48;;;;;;;2.63;1.20;;;18.90;70.00;;;;;;5014470;28;20025;-70
2022/12/31 12:12:15;;;;;;;2.40;1.30;;;19.00;69.90;;;;;;5012854;28;20028;-69
2022/12/31 12:14:42;;;;;;;3.40;1.30;;;19.00;69.80;;;;;;5015379;28;20014;-71
2022/12/31 12:17:09;;;;;;;2.92;1.25;;;19.00;69.70;;;;;;5013945;28;20022;-70
2022/12/31 12:19:40;;;;;;;3.25;1.10;;;19.00;69.70;;;;;;5014297;28;20042;-71
2022/12/31 12:22:13;;;;;;;2.08;1.05;;;19.00;69.60;;;;;;5014210;28;20037;-71
2022/12/31 12:24:39;;;;;;;2.63;1.40;;;19.10;69.50;;;;;;5014033;28;20530;-71
2022/12/31 12:27:04;;;;;;;3.17;1.30;;;19.10;70.50;;;;;;5048860;28;20040;-69
2022/12/31 12:29:33;;;;;;;2.45;1.30;;;19.10;69.40;;;;;;5053396;28;20399;-71
2022/12/31 12:32:11;;;;;;;3.58;1.33;;;19.20;69.20;;;;;;5053484;28;20036;-70
2022/12/31 12:34:37;;;;;;;2.83;1.10;;;19.20;69.20;;;;;;5053750;28;20070;-70
2022/12/31 12:37:04;;;;;;;3.10;1.48;;;19.20;69.10;;;;;;5053290;28;20021;-70
2022/12/31 12:39:31;;;;;;;2.95;1.08;;;19.20;69.00;;;;;;5054591;28;20025;-72
2022/12/31 12:42:04;;;;;;;6.70;1.08;;;19.30;69.00;;;;;;5053452;28;20535;-71
2022/12/31 12:44:30;;;;;;;4.25;1.50;;;19.30;68.90;;;;;;5053521;28;20032;-71
2022/12/31 12:46:55;;;;;;;2.63;1.08;;;19.30;68.90;;;;;;5053157;28;20029;-71
2022/12/31 12:49:38;;;;;;;1.40;1.00;;;19.30;68.90;;;;;;5054477;28;20082;-71
2022/12/31 12:52:04;;;;;;;;;;;19.30;68.80;;;;;;5053554;28;20028;-71
2022/12/31 12:54:36;;;;;;;2.38;1.17;;;19.30;68.70;;;;;;5052260;28;19905;-71
2022/12/31 12:57:17;;;;;;;1.92;1.05;;;19.30;68.80;;;;;;5033085;28;20026;-71
2022/12/31 13:00:02;;;;;;;4.63;1.83;;;19.30;68.80;;;;;;5034191;28;20033;-71
2022/12/31 13:02:47;;;;;;;2.47;1.17;;;19.30;68.80;;;;;;5033945;28;20092;-77
2022/12/31 13:05:25;;;;;;;2.72;1.15;;;19.30;68.90;;;;;;5032247;28;20048;-77
2022/12/31 13:08:02;;;;;;;3.75;1.23;;;19.20;69.30;;;;;;5013861;28;20026;-78
2022/12/31 13:10:50;;;;;;;2.97;1.20;;;19.10;69.50;;;;;;5013699;28;20419;-82
2022/12/31 13:13:40;;;;;;;3.05;1.20;;;19.00;69.60;;;;;;5012898;28;20049;-78
2022/12/31 13:16:35;;;;;;;3.03;1.00;;;19.00;69.80;;;;;;5012280;28;20076;-80
2022/12/31 13:19:26;;;;;;;3.55;1.30;;;18.90;69.80;;;;;;4991151;28;20035;-80
2022/12/31 13:21:57;;;;;;;1.55;0.95;;;18.90;70.00;;;;;;4986651;28;20045;-80
2022/12/31 13:24:39;;;;;;;3.75;1.30;;;18.80;70.00;;;;;;5007863;28;20032;-80
2022/12/31 13:27:33;;;;;;;2.95;1.20;;;18.80;70.10;;;;;;4991946;28;20539;-80
2022/12/31 13:30:01;;;;;;;4.15;1.45;;;18.70;70.10;;;;;;4991631;28;20089;-80